<?xml version="1.0" encoding="UTF-8" standalone="no" ?>
<gpx xmlns="http://www.topografix.com/GPX/1/1" xmlns:xsi="http://www.w3.org/2001/XMLSchema-instance" xsi:schemaLocation="http://www.topografix.com/GPX/1/1 http://www.topografix.com/GPX/1/1/gpx.xsd" version="1.1" creator="VisuGPX - https://www.visugpx.com">
  <metadata>
    <name>2020 Bretagne </name>
  </metadata>
  <trk>
    <name><![CDATA[20-08-08]]></name>
    <trkseg>
      <trkpt lat="47.83619" lon="-2.98341">
        <ele>73.2</ele>
        <time>2020-08-08T08:39:02Z</time>
      </trkpt>
      <trkpt lat="47.83619" lon="-2.98341">
        <ele>73.2</ele>
        <time>2020-08-08T08:39:03Z</time>
      </trkpt>
      <trkpt lat="47.8362" lon="-2.98352">
        <ele>72.24</ele>
        <time>2020-08-08T08:39:31Z</time>
      </trkpt>
      <trkpt lat="47.83619" lon="-2.98354">
        <ele>69.35</ele>
        <time>2020-08-08T08:39:34Z</time>
      </trkpt>
      <trkpt lat="47.83619" lon="-2.98354">
        <ele>74.64</ele>
        <time>2020-08-08T08:39:35Z</time>
      </trkpt>
      <trkpt lat="47.83619" lon="-2.9836">
        <ele>73.2</ele>
        <time>2020-08-08T08:39:41Z</time>
      </trkpt>
      <trkpt lat="47.83621" lon="-2.98362">
        <ele>77.52</ele>
        <time>2020-08-08T08:39:44Z</time>
      </trkpt>
      <trkpt lat="47.8362" lon="-2.98363">
        <ele>81.37</ele>
        <time>2020-08-08T08:39:47Z</time>
      </trkpt>
      <trkpt lat="47.8362" lon="-2.98365">
        <ele>84.73</ele>
        <time>2020-08-08T08:39:50Z</time>
      </trkpt>
      <trkpt lat="47.83621" lon="-2.98366">
        <ele>88.58</ele>
        <time>2020-08-08T08:39:53Z</time>
      </trkpt>
      <trkpt lat="47.83622" lon="-2.98367">
        <ele>92.9</ele>
        <time>2020-08-08T08:39:57Z</time>
      </trkpt>
      <trkpt lat="47.83621" lon="-2.98369">
        <ele>95.79</ele>
        <time>2020-08-08T08:40:00Z</time>
      </trkpt>
      <trkpt lat="47.83615" lon="-2.98369">
        <ele>99.15</ele>
        <time>2020-08-08T08:40:05Z</time>
      </trkpt>
      <trkpt lat="47.83614" lon="-2.98373">
        <ele>102.52</ele>
        <time>2020-08-08T08:40:10Z</time>
      </trkpt>
      <trkpt lat="47.83615" lon="-2.98374">
        <ele>103</ele>
        <time>2020-08-08T08:40:11Z</time>
      </trkpt>
      <trkpt lat="47.83611" lon="-2.98381">
        <ele>106.36</ele>
        <time>2020-08-08T08:40:17Z</time>
      </trkpt>
      <trkpt lat="47.83603" lon="-2.9837">
        <ele>108.77</ele>
        <time>2020-08-08T08:40:31Z</time>
      </trkpt>
      <trkpt lat="47.83594" lon="-2.98353">
        <ele>110.69</ele>
        <time>2020-08-08T08:40:48Z</time>
      </trkpt>
      <trkpt lat="47.83586" lon="-2.98342">
        <ele>111.65</ele>
        <time>2020-08-08T08:41:01Z</time>
      </trkpt>
      <trkpt lat="47.83578" lon="-2.98333">
        <ele>113.09</ele>
        <time>2020-08-08T08:41:13Z</time>
      </trkpt>
      <trkpt lat="47.83576" lon="-2.9833">
        <ele>113.09</ele>
        <time>2020-08-08T08:41:15Z</time>
      </trkpt>
      <trkpt lat="47.8357" lon="-2.98309">
        <ele>113.09</ele>
        <time>2020-08-08T08:41:30Z</time>
      </trkpt>
      <trkpt lat="47.83562" lon="-2.98294">
        <ele>113.57</ele>
        <time>2020-08-08T08:41:43Z</time>
      </trkpt>
      <trkpt lat="47.8356" lon="-2.98287">
        <ele>113.57</ele>
        <time>2020-08-08T08:41:47Z</time>
      </trkpt>
      <trkpt lat="47.83546" lon="-2.98262">
        <ele>113.09</ele>
        <time>2020-08-08T08:42:02Z</time>
      </trkpt>
      <trkpt lat="47.83541" lon="-2.98245">
        <ele>114.53</ele>
        <time>2020-08-08T08:42:17Z</time>
      </trkpt>
      <trkpt lat="47.83529" lon="-2.98221">
        <ele>114.53</ele>
        <time>2020-08-08T08:42:33Z</time>
      </trkpt>
      <trkpt lat="47.83529" lon="-2.98219">
        <ele>114.05</ele>
        <time>2020-08-08T08:42:34Z</time>
      </trkpt>
      <trkpt lat="47.83528" lon="-2.98216">
        <ele>114.05</ele>
        <time>2020-08-08T08:42:36Z</time>
      </trkpt>
      <trkpt lat="47.83519" lon="-2.98195">
        <ele>114.05</ele>
        <time>2020-08-08T08:42:52Z</time>
      </trkpt>
      <trkpt lat="47.83511" lon="-2.98176">
        <ele>114.05</ele>
        <time>2020-08-08T08:43:03Z</time>
      </trkpt>
      <trkpt lat="47.83503" lon="-2.98164">
        <ele>114.05</ele>
        <time>2020-08-08T08:43:11Z</time>
      </trkpt>
      <trkpt lat="47.83494" lon="-2.98147">
        <ele>114.05</ele>
        <time>2020-08-08T08:43:23Z</time>
      </trkpt>
      <trkpt lat="47.83487" lon="-2.98131">
        <ele>114.05</ele>
        <time>2020-08-08T08:43:34Z</time>
      </trkpt>
      <trkpt lat="47.83485" lon="-2.98126">
        <ele>114.53</ele>
        <time>2020-08-08T08:43:37Z</time>
      </trkpt>
      <trkpt lat="47.8348" lon="-2.98118">
        <ele>115.01</ele>
        <time>2020-08-08T08:43:42Z</time>
      </trkpt>
      <trkpt lat="47.83472" lon="-2.981">
        <ele>115.01</ele>
        <time>2020-08-08T08:43:52Z</time>
      </trkpt>
      <trkpt lat="47.83471" lon="-2.98095">
        <ele>115.01</ele>
        <time>2020-08-08T08:43:55Z</time>
      </trkpt>
      <trkpt lat="47.83461" lon="-2.98073">
        <ele>115.5</ele>
        <time>2020-08-08T08:44:09Z</time>
      </trkpt>
      <trkpt lat="47.83459" lon="-2.98071">
        <ele>115.5</ele>
        <time>2020-08-08T08:44:11Z</time>
      </trkpt>
      <trkpt lat="47.8345" lon="-2.98054">
        <ele>115.98</ele>
        <time>2020-08-08T08:44:25Z</time>
      </trkpt>
      <trkpt lat="47.83447" lon="-2.98051">
        <ele>115.5</ele>
        <time>2020-08-08T08:44:32Z</time>
      </trkpt>
      <trkpt lat="47.83446" lon="-2.9805">
        <ele>115.5</ele>
        <time>2020-08-08T08:44:34Z</time>
      </trkpt>
      <trkpt lat="47.83444" lon="-2.98041">
        <ele>115.98</ele>
        <time>2020-08-08T08:44:40Z</time>
      </trkpt>
      <trkpt lat="47.83443" lon="-2.98038">
        <ele>115.98</ele>
        <time>2020-08-08T08:44:42Z</time>
      </trkpt>
      <trkpt lat="47.83438" lon="-2.98017">
        <ele>116.46</ele>
        <time>2020-08-08T08:44:56Z</time>
      </trkpt>
      <trkpt lat="47.83433" lon="-2.97999">
        <ele>115.98</ele>
        <time>2020-08-08T08:45:10Z</time>
      </trkpt>
      <trkpt lat="47.83428" lon="-2.97981">
        <ele>116.46</ele>
        <time>2020-08-08T08:45:23Z</time>
      </trkpt>
      <trkpt lat="47.83428" lon="-2.97979">
        <ele>116.46</ele>
        <time>2020-08-08T08:45:24Z</time>
      </trkpt>
      <trkpt lat="47.83421" lon="-2.97959">
        <ele>116.46</ele>
        <time>2020-08-08T08:45:39Z</time>
      </trkpt>
      <trkpt lat="47.83417" lon="-2.97943">
        <ele>116.46</ele>
        <time>2020-08-08T08:45:50Z</time>
      </trkpt>
      <trkpt lat="47.83409" lon="-2.97945">
        <ele>116.46</ele>
        <time>2020-08-08T08:46:03Z</time>
      </trkpt>
      <trkpt lat="47.83397" lon="-2.97946">
        <ele>116.46</ele>
        <time>2020-08-08T08:46:18Z</time>
      </trkpt>
      <trkpt lat="47.8339" lon="-2.97946">
        <ele>116.46</ele>
        <time>2020-08-08T08:46:30Z</time>
      </trkpt>
      <trkpt lat="47.83383" lon="-2.9794">
        <ele>115.98</ele>
        <time>2020-08-08T08:46:41Z</time>
      </trkpt>
      <trkpt lat="47.83365" lon="-2.97933">
        <ele>115.98</ele>
        <time>2020-08-08T08:46:53Z</time>
      </trkpt>
      <trkpt lat="47.83362" lon="-2.97934">
        <ele>115.5</ele>
        <time>2020-08-08T08:47:14Z</time>
      </trkpt>
      <trkpt lat="47.83354" lon="-2.97939">
        <ele>115.98</ele>
        <time>2020-08-08T08:47:30Z</time>
      </trkpt>
      <trkpt lat="47.83341" lon="-2.97941">
        <ele>115.01</ele>
        <time>2020-08-08T08:47:45Z</time>
      </trkpt>
      <trkpt lat="47.83329" lon="-2.97956">
        <ele>115.01</ele>
        <time>2020-08-08T08:47:59Z</time>
      </trkpt>
      <trkpt lat="47.83315" lon="-2.97966">
        <ele>115.5</ele>
        <time>2020-08-08T08:48:18Z</time>
      </trkpt>
      <trkpt lat="47.83296" lon="-2.97969">
        <ele>115.01</ele>
        <time>2020-08-08T08:48:34Z</time>
      </trkpt>
      <trkpt lat="47.83275" lon="-2.97959">
        <ele>114.05</ele>
        <time>2020-08-08T08:48:52Z</time>
      </trkpt>
      <trkpt lat="47.83271" lon="-2.97947">
        <ele>114.05</ele>
        <time>2020-08-08T08:49:06Z</time>
      </trkpt>
      <trkpt lat="47.8327" lon="-2.97942">
        <ele>114.53</ele>
        <time>2020-08-08T08:49:22Z</time>
      </trkpt>
      <trkpt lat="47.83269" lon="-2.97943">
        <ele>114.05</ele>
        <time>2020-08-08T08:49:37Z</time>
      </trkpt>
      <trkpt lat="47.83258" lon="-2.97939">
        <ele>113.57</ele>
        <time>2020-08-08T08:49:51Z</time>
      </trkpt>
      <trkpt lat="47.83252" lon="-2.97933">
        <ele>113.09</ele>
        <time>2020-08-08T08:50:03Z</time>
      </trkpt>
      <trkpt lat="47.83245" lon="-2.97927">
        <ele>113.09</ele>
        <time>2020-08-08T08:50:11Z</time>
      </trkpt>
      <trkpt lat="47.83234" lon="-2.9791">
        <ele>112.61</ele>
        <time>2020-08-08T08:50:23Z</time>
      </trkpt>
      <trkpt lat="47.83232" lon="-2.97908">
        <ele>112.61</ele>
        <time>2020-08-08T08:50:24Z</time>
      </trkpt>
      <trkpt lat="47.83227" lon="-2.97903">
        <ele>112.61</ele>
        <time>2020-08-08T08:50:27Z</time>
      </trkpt>
      <trkpt lat="47.83214" lon="-2.97897">
        <ele>111.65</ele>
        <time>2020-08-08T08:50:36Z</time>
      </trkpt>
      <trkpt lat="47.83206" lon="-2.97887">
        <ele>111.65</ele>
        <time>2020-08-08T08:50:45Z</time>
      </trkpt>
      <trkpt lat="47.8319" lon="-2.97868">
        <ele>111.65</ele>
        <time>2020-08-08T08:51:01Z</time>
      </trkpt>
      <trkpt lat="47.83185" lon="-2.97866">
        <ele>112.13</ele>
        <time>2020-08-08T08:51:05Z</time>
      </trkpt>
      <trkpt lat="47.83177" lon="-2.97861">
        <ele>112.61</ele>
        <time>2020-08-08T08:51:15Z</time>
      </trkpt>
      <trkpt lat="47.83163" lon="-2.9785">
        <ele>112.13</ele>
        <time>2020-08-08T08:51:31Z</time>
      </trkpt>
      <trkpt lat="47.83156" lon="-2.97835">
        <ele>112.61</ele>
        <time>2020-08-08T08:51:45Z</time>
      </trkpt>
      <trkpt lat="47.83163" lon="-2.97813">
        <ele>113.09</ele>
        <time>2020-08-08T08:51:57Z</time>
      </trkpt>
      <trkpt lat="47.83161" lon="-2.97811">
        <ele>113.09</ele>
        <time>2020-08-08T08:52:02Z</time>
      </trkpt>
      <trkpt lat="47.83145" lon="-2.97797">
        <ele>113.09</ele>
        <time>2020-08-08T08:52:17Z</time>
      </trkpt>
      <trkpt lat="47.83136" lon="-2.97788">
        <ele>113.09</ele>
        <time>2020-08-08T08:52:28Z</time>
      </trkpt>
      <trkpt lat="47.83129" lon="-2.97781">
        <ele>114.05</ele>
        <time>2020-08-08T08:52:35Z</time>
      </trkpt>
      <trkpt lat="47.83115" lon="-2.97765">
        <ele>114.05</ele>
        <time>2020-08-08T08:52:50Z</time>
      </trkpt>
      <trkpt lat="47.83097" lon="-2.9775">
        <ele>114.53</ele>
        <time>2020-08-08T08:53:04Z</time>
      </trkpt>
      <trkpt lat="47.83085" lon="-2.97737">
        <ele>115.5</ele>
        <time>2020-08-08T08:53:19Z</time>
      </trkpt>
      <trkpt lat="47.83072" lon="-2.97724">
        <ele>115.98</ele>
        <time>2020-08-08T08:53:34Z</time>
      </trkpt>
      <trkpt lat="47.83071" lon="-2.97723">
        <ele>115.98</ele>
        <time>2020-08-08T08:53:35Z</time>
      </trkpt>
      <trkpt lat="47.83067" lon="-2.97722">
        <ele>116.46</ele>
        <time>2020-08-08T08:53:39Z</time>
      </trkpt>
      <trkpt lat="47.83052" lon="-2.97702">
        <ele>117.42</ele>
        <time>2020-08-08T08:53:58Z</time>
      </trkpt>
      <trkpt lat="47.83044" lon="-2.97687">
        <ele>118.38</ele>
        <time>2020-08-08T08:54:12Z</time>
      </trkpt>
      <trkpt lat="47.83029" lon="-2.97674">
        <ele>118.86</ele>
        <time>2020-08-08T08:54:27Z</time>
      </trkpt>
      <trkpt lat="47.83012" lon="-2.97656">
        <ele>121.26</ele>
        <time>2020-08-08T08:54:45Z</time>
      </trkpt>
      <trkpt lat="47.82993" lon="-2.97644">
        <ele>122.71</ele>
        <time>2020-08-08T08:54:58Z</time>
      </trkpt>
      <trkpt lat="47.82992" lon="-2.97643">
        <ele>122.71</ele>
        <time>2020-08-08T08:55:00Z</time>
      </trkpt>
      <trkpt lat="47.82984" lon="-2.97629">
        <ele>124.15</ele>
        <time>2020-08-08T08:55:17Z</time>
      </trkpt>
      <trkpt lat="47.82973" lon="-2.97616">
        <ele>125.11</ele>
        <time>2020-08-08T08:55:30Z</time>
      </trkpt>
      <trkpt lat="47.82965" lon="-2.97599">
        <ele>125.11</ele>
        <time>2020-08-08T08:55:45Z</time>
      </trkpt>
      <trkpt lat="47.82952" lon="-2.97587">
        <ele>125.59</ele>
        <time>2020-08-08T08:55:59Z</time>
      </trkpt>
      <trkpt lat="47.82945" lon="-2.97579">
        <ele>126.07</ele>
        <time>2020-08-08T08:56:06Z</time>
      </trkpt>
      <trkpt lat="47.82933" lon="-2.97564">
        <ele>126.55</ele>
        <time>2020-08-08T08:56:21Z</time>
      </trkpt>
      <trkpt lat="47.82925" lon="-2.97553">
        <ele>126.55</ele>
        <time>2020-08-08T08:56:35Z</time>
      </trkpt>
      <trkpt lat="47.82913" lon="-2.97538">
        <ele>126.55</ele>
        <time>2020-08-08T08:56:52Z</time>
      </trkpt>
      <trkpt lat="47.82895" lon="-2.97522">
        <ele>126.55</ele>
        <time>2020-08-08T08:57:13Z</time>
      </trkpt>
      <trkpt lat="47.82892" lon="-2.97516">
        <ele>126.55</ele>
        <time>2020-08-08T08:57:18Z</time>
      </trkpt>
      <trkpt lat="47.82878" lon="-2.97508">
        <ele>126.07</ele>
        <time>2020-08-08T08:57:27Z</time>
      </trkpt>
      <trkpt lat="47.82864" lon="-2.97498">
        <ele>126.07</ele>
        <time>2020-08-08T08:57:40Z</time>
      </trkpt>
      <trkpt lat="47.8286" lon="-2.97494">
        <ele>125.59</ele>
        <time>2020-08-08T08:57:45Z</time>
      </trkpt>
      <trkpt lat="47.82849" lon="-2.9748">
        <ele>125.59</ele>
        <time>2020-08-08T08:58:01Z</time>
      </trkpt>
      <trkpt lat="47.82843" lon="-2.97474">
        <ele>125.59</ele>
        <time>2020-08-08T08:58:09Z</time>
      </trkpt>
      <trkpt lat="47.82824" lon="-2.97458">
        <ele>124.63</ele>
        <time>2020-08-08T08:58:27Z</time>
      </trkpt>
      <trkpt lat="47.82824" lon="-2.97453">
        <ele>124.15</ele>
        <time>2020-08-08T08:58:28Z</time>
      </trkpt>
      <trkpt lat="47.82814" lon="-2.97434">
        <ele>124.15</ele>
        <time>2020-08-08T08:58:42Z</time>
      </trkpt>
      <trkpt lat="47.828" lon="-2.97421">
        <ele>124.63</ele>
        <time>2020-08-08T08:58:56Z</time>
      </trkpt>
      <trkpt lat="47.82782" lon="-2.97406">
        <ele>125.59</ele>
        <time>2020-08-08T08:59:11Z</time>
      </trkpt>
      <trkpt lat="47.82772" lon="-2.97393">
        <ele>126.55</ele>
        <time>2020-08-08T08:59:24Z</time>
      </trkpt>
      <trkpt lat="47.82767" lon="-2.97384">
        <ele>127.03</ele>
        <time>2020-08-08T08:59:36Z</time>
      </trkpt>
      <trkpt lat="47.82753" lon="-2.97368">
        <ele>127.03</ele>
        <time>2020-08-08T08:59:53Z</time>
      </trkpt>
      <trkpt lat="47.82744" lon="-2.97355">
        <ele>127.03</ele>
        <time>2020-08-08T09:00:07Z</time>
      </trkpt>
      <trkpt lat="47.82741" lon="-2.97351">
        <ele>127.51</ele>
        <time>2020-08-08T09:00:10Z</time>
      </trkpt>
      <trkpt lat="47.82738" lon="-2.97345">
        <ele>127.03</ele>
        <time>2020-08-08T09:00:13Z</time>
      </trkpt>
      <trkpt lat="47.82726" lon="-2.97334">
        <ele>126.55</ele>
        <time>2020-08-08T09:00:24Z</time>
      </trkpt>
      <trkpt lat="47.82716" lon="-2.97322">
        <ele>126.55</ele>
        <time>2020-08-08T09:00:40Z</time>
      </trkpt>
      <trkpt lat="47.82701" lon="-2.97307">
        <ele>126.55</ele>
        <time>2020-08-08T09:00:54Z</time>
      </trkpt>
      <trkpt lat="47.82696" lon="-2.97302">
        <ele>127.03</ele>
        <time>2020-08-08T09:00:58Z</time>
      </trkpt>
      <trkpt lat="47.82689" lon="-2.9727">
        <ele>127.51</ele>
        <time>2020-08-08T09:01:09Z</time>
      </trkpt>
      <trkpt lat="47.82686" lon="-2.97274">
        <ele>127.03</ele>
        <time>2020-08-08T09:01:16Z</time>
      </trkpt>
      <trkpt lat="47.82672" lon="-2.97283">
        <ele>126.07</ele>
        <time>2020-08-08T09:01:31Z</time>
      </trkpt>
      <trkpt lat="47.8266" lon="-2.97291">
        <ele>125.11</ele>
        <time>2020-08-08T09:01:46Z</time>
      </trkpt>
      <trkpt lat="47.82652" lon="-2.97305">
        <ele>124.63</ele>
        <time>2020-08-08T09:01:59Z</time>
      </trkpt>
      <trkpt lat="47.82644" lon="-2.97312">
        <ele>123.67</ele>
        <time>2020-08-08T09:02:06Z</time>
      </trkpt>
      <trkpt lat="47.82623" lon="-2.97329">
        <ele>121.74</ele>
        <time>2020-08-08T09:02:25Z</time>
      </trkpt>
      <trkpt lat="47.82609" lon="-2.97342">
        <ele>121.26</ele>
        <time>2020-08-08T09:02:39Z</time>
      </trkpt>
      <trkpt lat="47.82597" lon="-2.97357">
        <ele>119.82</ele>
        <time>2020-08-08T09:02:54Z</time>
      </trkpt>
      <trkpt lat="47.82588" lon="-2.97363">
        <ele>119.82</ele>
        <time>2020-08-08T09:03:03Z</time>
      </trkpt>
      <trkpt lat="47.82575" lon="-2.97377">
        <ele>118.38</ele>
        <time>2020-08-08T09:03:19Z</time>
      </trkpt>
      <trkpt lat="47.8257" lon="-2.9738">
        <ele>117.9</ele>
        <time>2020-08-08T09:03:25Z</time>
      </trkpt>
      <trkpt lat="47.82551" lon="-2.97403">
        <ele>115.98</ele>
        <time>2020-08-08T09:03:42Z</time>
      </trkpt>
      <trkpt lat="47.82548" lon="-2.97408">
        <ele>115.98</ele>
        <time>2020-08-08T09:03:47Z</time>
      </trkpt>
      <trkpt lat="47.82541" lon="-2.97426">
        <ele>115.01</ele>
        <time>2020-08-08T09:04:01Z</time>
      </trkpt>
      <trkpt lat="47.82534" lon="-2.97427">
        <ele>115.5</ele>
        <time>2020-08-08T09:04:13Z</time>
      </trkpt>
      <trkpt lat="47.82529" lon="-2.97426">
        <ele>115.01</ele>
        <time>2020-08-08T09:04:18Z</time>
      </trkpt>
      <trkpt lat="47.82516" lon="-2.97432">
        <ele>114.05</ele>
        <time>2020-08-08T09:04:32Z</time>
      </trkpt>
      <trkpt lat="47.82498" lon="-2.97424">
        <ele>114.05</ele>
        <time>2020-08-08T09:04:50Z</time>
      </trkpt>
      <trkpt lat="47.82486" lon="-2.97422">
        <ele>114.05</ele>
        <time>2020-08-08T09:04:58Z</time>
      </trkpt>
      <trkpt lat="47.82473" lon="-2.9742">
        <ele>114.05</ele>
        <time>2020-08-08T09:05:10Z</time>
      </trkpt>
      <trkpt lat="47.82466" lon="-2.97414">
        <ele>114.05</ele>
        <time>2020-08-08T09:05:18Z</time>
      </trkpt>
      <trkpt lat="47.82455" lon="-2.97401">
        <ele>113.57</ele>
        <time>2020-08-08T09:05:34Z</time>
      </trkpt>
      <trkpt lat="47.82442" lon="-2.97385">
        <ele>113.57</ele>
        <time>2020-08-08T09:05:47Z</time>
      </trkpt>
      <trkpt lat="47.82422" lon="-2.97377">
        <ele>112.61</ele>
        <time>2020-08-08T09:06:04Z</time>
      </trkpt>
      <trkpt lat="47.82413" lon="-2.97375">
        <ele>112.13</ele>
        <time>2020-08-08T09:06:18Z</time>
      </trkpt>
      <trkpt lat="47.824" lon="-2.97367">
        <ele>110.69</ele>
        <time>2020-08-08T09:06:35Z</time>
      </trkpt>
      <trkpt lat="47.82386" lon="-2.97358">
        <ele>110.21</ele>
        <time>2020-08-08T09:06:49Z</time>
      </trkpt>
      <trkpt lat="47.8238" lon="-2.97357">
        <ele>110.21</ele>
        <time>2020-08-08T09:06:55Z</time>
      </trkpt>
      <trkpt lat="47.82376" lon="-2.97357">
        <ele>109.73</ele>
        <time>2020-08-08T09:06:57Z</time>
      </trkpt>
      <trkpt lat="47.82363" lon="-2.97352">
        <ele>109.25</ele>
        <time>2020-08-08T09:07:12Z</time>
      </trkpt>
      <trkpt lat="47.82349" lon="-2.97344">
        <ele>108.77</ele>
        <time>2020-08-08T09:07:23Z</time>
      </trkpt>
      <trkpt lat="47.82331" lon="-2.97333">
        <ele>106.84</ele>
        <time>2020-08-08T09:07:39Z</time>
      </trkpt>
      <trkpt lat="47.8232" lon="-2.97326">
        <ele>106.36</ele>
        <time>2020-08-08T09:07:54Z</time>
      </trkpt>
      <trkpt lat="47.82315" lon="-2.97322">
        <ele>105.88</ele>
        <time>2020-08-08T09:07:59Z</time>
      </trkpt>
      <trkpt lat="47.82302" lon="-2.97315">
        <ele>104.92</ele>
        <time>2020-08-08T09:08:14Z</time>
      </trkpt>
      <trkpt lat="47.82294" lon="-2.97303">
        <ele>103.96</ele>
        <time>2020-08-08T09:08:27Z</time>
      </trkpt>
      <trkpt lat="47.82279" lon="-2.97298">
        <ele>103</ele>
        <time>2020-08-08T09:08:37Z</time>
      </trkpt>
      <trkpt lat="47.82249" lon="-2.97287">
        <ele>101.56</ele>
        <time>2020-08-08T09:08:58Z</time>
      </trkpt>
      <trkpt lat="47.82246" lon="-2.97287">
        <ele>101.08</ele>
        <time>2020-08-08T09:09:00Z</time>
      </trkpt>
      <trkpt lat="47.82209" lon="-2.97297">
        <ele>99.63</ele>
        <time>2020-08-08T09:09:23Z</time>
      </trkpt>
      <trkpt lat="47.82191" lon="-2.97253">
        <ele>99.15</ele>
        <time>2020-08-08T09:09:45Z</time>
      </trkpt>
      <trkpt lat="47.82193" lon="-2.97233">
        <ele>98.67</ele>
        <time>2020-08-08T09:09:56Z</time>
      </trkpt>
      <trkpt lat="47.82186" lon="-2.97223">
        <ele>98.67</ele>
        <time>2020-08-08T09:10:10Z</time>
      </trkpt>
      <trkpt lat="47.82184" lon="-2.9722">
        <ele>97.71</ele>
        <time>2020-08-08T09:10:26Z</time>
      </trkpt>
      <trkpt lat="47.82165" lon="-2.97213">
        <ele>98.19</ele>
        <time>2020-08-08T09:10:42Z</time>
      </trkpt>
      <trkpt lat="47.82135" lon="-2.97203">
        <ele>97.71</ele>
        <time>2020-08-08T09:11:02Z</time>
      </trkpt>
      <trkpt lat="47.8212" lon="-2.97198">
        <ele>97.23</ele>
        <time>2020-08-08T09:11:17Z</time>
      </trkpt>
      <trkpt lat="47.82106" lon="-2.97195">
        <ele>97.23</ele>
        <time>2020-08-08T09:11:29Z</time>
      </trkpt>
      <trkpt lat="47.82096" lon="-2.97193">
        <ele>98.67</ele>
        <time>2020-08-08T09:11:43Z</time>
      </trkpt>
      <trkpt lat="47.82078" lon="-2.97167">
        <ele>98.67</ele>
        <time>2020-08-08T09:12:05Z</time>
      </trkpt>
      <trkpt lat="47.82061" lon="-2.9714">
        <ele>97.71</ele>
        <time>2020-08-08T09:12:25Z</time>
      </trkpt>
      <trkpt lat="47.82051" lon="-2.97131">
        <ele>97.71</ele>
        <time>2020-08-08T09:12:36Z</time>
      </trkpt>
      <trkpt lat="47.82048" lon="-2.9713">
        <ele>97.71</ele>
        <time>2020-08-08T09:12:38Z</time>
      </trkpt>
      <trkpt lat="47.82032" lon="-2.97118">
        <ele>97.23</ele>
        <time>2020-08-08T09:12:54Z</time>
      </trkpt>
      <trkpt lat="47.82028" lon="-2.97118">
        <ele>97.23</ele>
        <time>2020-08-08T09:12:56Z</time>
      </trkpt>
      <trkpt lat="47.82006" lon="-2.97123">
        <ele>97.71</ele>
        <time>2020-08-08T09:13:16Z</time>
      </trkpt>
      <trkpt lat="47.81994" lon="-2.97113">
        <ele>97.23</ele>
        <time>2020-08-08T09:13:30Z</time>
      </trkpt>
      <trkpt lat="47.81987" lon="-2.9711">
        <ele>96.75</ele>
        <time>2020-08-08T09:13:35Z</time>
      </trkpt>
      <trkpt lat="47.81982" lon="-2.97104">
        <ele>97.23</ele>
        <time>2020-08-08T09:13:36Z</time>
      </trkpt>
      <trkpt lat="47.81978" lon="-2.97086">
        <ele>97.23</ele>
        <time>2020-08-08T09:13:39Z</time>
      </trkpt>
      <trkpt lat="47.81975" lon="-2.97069">
        <ele>96.27</ele>
        <time>2020-08-08T09:13:50Z</time>
      </trkpt>
      <trkpt lat="47.81969" lon="-2.97051">
        <ele>96.27</ele>
        <time>2020-08-08T09:14:01Z</time>
      </trkpt>
      <trkpt lat="47.81954" lon="-2.97048">
        <ele>96.27</ele>
        <time>2020-08-08T09:14:18Z</time>
      </trkpt>
      <trkpt lat="47.81934" lon="-2.97046">
        <ele>95.79</ele>
        <time>2020-08-08T09:14:40Z</time>
      </trkpt>
      <trkpt lat="47.81919" lon="-2.9704">
        <ele>96.75</ele>
        <time>2020-08-08T09:15:01Z</time>
      </trkpt>
      <trkpt lat="47.81917" lon="-2.97039">
        <ele>97.23</ele>
        <time>2020-08-08T09:15:02Z</time>
      </trkpt>
      <trkpt lat="47.81913" lon="-2.97021">
        <ele>97.71</ele>
        <time>2020-08-08T09:15:12Z</time>
      </trkpt>
      <trkpt lat="47.819" lon="-2.9699">
        <ele>99.15</ele>
        <time>2020-08-08T09:15:32Z</time>
      </trkpt>
      <trkpt lat="47.8188" lon="-2.96965">
        <ele>100.6</ele>
        <time>2020-08-08T09:15:53Z</time>
      </trkpt>
      <trkpt lat="47.81871" lon="-2.96949">
        <ele>102.52</ele>
        <time>2020-08-08T09:16:14Z</time>
      </trkpt>
      <trkpt lat="47.81857" lon="-2.96926">
        <ele>103.96</ele>
        <time>2020-08-08T09:16:34Z</time>
      </trkpt>
      <trkpt lat="47.81856" lon="-2.96905">
        <ele>104.92</ele>
        <time>2020-08-08T09:16:48Z</time>
      </trkpt>
      <trkpt lat="47.81846" lon="-2.96879">
        <ele>106.84</ele>
        <time>2020-08-08T09:17:09Z</time>
      </trkpt>
      <trkpt lat="47.81837" lon="-2.96872">
        <ele>107.32</ele>
        <time>2020-08-08T09:17:26Z</time>
      </trkpt>
      <trkpt lat="47.81825" lon="-2.9687">
        <ele>108.77</ele>
        <time>2020-08-08T09:17:42Z</time>
      </trkpt>
      <trkpt lat="47.81824" lon="-2.96859">
        <ele>109.25</ele>
        <time>2020-08-08T09:17:56Z</time>
      </trkpt>
      <trkpt lat="47.81819" lon="-2.96852">
        <ele>110.21</ele>
        <time>2020-08-08T09:18:14Z</time>
      </trkpt>
      <trkpt lat="47.81816" lon="-2.96819">
        <ele>112.13</ele>
        <time>2020-08-08T09:18:33Z</time>
      </trkpt>
      <trkpt lat="47.81815" lon="-2.96817">
        <ele>112.13</ele>
        <time>2020-08-08T09:18:45Z</time>
      </trkpt>
      <trkpt lat="47.81817" lon="-2.96805">
        <ele>112.61</ele>
        <time>2020-08-08T09:18:59Z</time>
      </trkpt>
      <trkpt lat="47.81817" lon="-2.96796">
        <ele>113.57</ele>
        <time>2020-08-08T09:19:12Z</time>
      </trkpt>
      <trkpt lat="47.81835" lon="-2.96737">
        <ele>114.05</ele>
        <time>2020-08-08T09:19:29Z</time>
      </trkpt>
      <trkpt lat="47.81844" lon="-2.96736">
        <ele>115.01</ele>
        <time>2020-08-08T09:19:42Z</time>
      </trkpt>
      <trkpt lat="47.8185" lon="-2.96754">
        <ele>117.42</ele>
        <time>2020-08-08T09:20:01Z</time>
      </trkpt>
      <trkpt lat="47.81855" lon="-2.9677">
        <ele>117.42</ele>
        <time>2020-08-08T09:20:17Z</time>
      </trkpt>
      <trkpt lat="47.81853" lon="-2.96776">
        <ele>117.42</ele>
        <time>2020-08-08T09:20:37Z</time>
      </trkpt>
      <trkpt lat="47.81854" lon="-2.96779">
        <ele>117.42</ele>
        <time>2020-08-08T09:21:05Z</time>
      </trkpt>
      <trkpt lat="47.81855" lon="-2.96782">
        <ele>117.42</ele>
        <time>2020-08-08T09:21:26Z</time>
      </trkpt>
      <trkpt lat="47.81858" lon="-2.9679">
        <ele>117.9</ele>
        <time>2020-08-08T09:21:53Z</time>
      </trkpt>
      <trkpt lat="47.8186" lon="-2.96804">
        <ele>117.9</ele>
        <time>2020-08-08T09:22:13Z</time>
      </trkpt>
      <trkpt lat="47.81865" lon="-2.96809">
        <ele>117.9</ele>
        <time>2020-08-08T09:22:37Z</time>
      </trkpt>
      <trkpt lat="47.81866" lon="-2.96806">
        <ele>117.42</ele>
        <time>2020-08-08T09:22:55Z</time>
      </trkpt>
      <trkpt lat="47.81866" lon="-2.96807">
        <ele>117.42</ele>
        <time>2020-08-08T09:23:18Z</time>
      </trkpt>
      <trkpt lat="47.81865" lon="-2.96808">
        <ele>116.94</ele>
        <time>2020-08-08T09:23:37Z</time>
      </trkpt>
      <trkpt lat="47.81867" lon="-2.96812">
        <ele>118.86</ele>
        <time>2020-08-08T09:23:53Z</time>
      </trkpt>
      <trkpt lat="47.81868" lon="-2.96814">
        <ele>118.86</ele>
        <time>2020-08-08T09:24:05Z</time>
      </trkpt>
      <trkpt lat="47.81873" lon="-2.9682">
        <ele>116.46</ele>
        <time>2020-08-08T09:24:24Z</time>
      </trkpt>
      <trkpt lat="47.81872" lon="-2.96829">
        <ele>113.57</ele>
        <time>2020-08-08T09:24:40Z</time>
      </trkpt>
      <trkpt lat="47.81869" lon="-2.96842">
        <ele>111.65</ele>
        <time>2020-08-08T09:24:58Z</time>
      </trkpt>
      <trkpt lat="47.81865" lon="-2.96844">
        <ele>109.73</ele>
        <time>2020-08-08T09:25:13Z</time>
      </trkpt>
      <trkpt lat="47.81849" lon="-2.9685">
        <ele>108.77</ele>
        <time>2020-08-08T09:25:35Z</time>
      </trkpt>
      <trkpt lat="47.8184" lon="-2.96867">
        <ele>108.77</ele>
        <time>2020-08-08T09:25:50Z</time>
      </trkpt>
      <trkpt lat="47.81836" lon="-2.96872">
        <ele>108.77</ele>
        <time>2020-08-08T09:26:24Z</time>
      </trkpt>
      <trkpt lat="47.81833" lon="-2.96868">
        <ele>108.29</ele>
        <time>2020-08-08T09:26:57Z</time>
      </trkpt>
      <trkpt lat="47.81833" lon="-2.96862">
        <ele>106.84</ele>
        <time>2020-08-08T09:27:14Z</time>
      </trkpt>
      <trkpt lat="47.81836" lon="-2.96872">
        <ele>106.84</ele>
        <time>2020-08-08T09:27:27Z</time>
      </trkpt>
      <trkpt lat="47.81842" lon="-2.96887">
        <ele>105.88</ele>
        <time>2020-08-08T09:27:42Z</time>
      </trkpt>
      <trkpt lat="47.8185" lon="-2.96899">
        <ele>104.44</ele>
        <time>2020-08-08T09:27:56Z</time>
      </trkpt>
      <trkpt lat="47.8186" lon="-2.96921">
        <ele>103.48</ele>
        <time>2020-08-08T09:28:12Z</time>
      </trkpt>
      <trkpt lat="47.81862" lon="-2.96931">
        <ele>102.04</ele>
        <time>2020-08-08T09:28:27Z</time>
      </trkpt>
      <trkpt lat="47.81863" lon="-2.96939">
        <ele>101.56</ele>
        <time>2020-08-08T09:28:37Z</time>
      </trkpt>
      <trkpt lat="47.81878" lon="-2.96961">
        <ele>100.6</ele>
        <time>2020-08-08T09:28:54Z</time>
      </trkpt>
      <trkpt lat="47.81879" lon="-2.96962">
        <ele>100.6</ele>
        <time>2020-08-08T09:28:55Z</time>
      </trkpt>
      <trkpt lat="47.81881" lon="-2.96965">
        <ele>100.6</ele>
        <time>2020-08-08T09:28:57Z</time>
      </trkpt>
      <trkpt lat="47.8189" lon="-2.96986">
        <ele>99.15</ele>
        <time>2020-08-08T09:29:14Z</time>
      </trkpt>
      <trkpt lat="47.81896" lon="-2.96999">
        <ele>98.67</ele>
        <time>2020-08-08T09:29:24Z</time>
      </trkpt>
      <trkpt lat="47.81913" lon="-2.97023">
        <ele>98.67</ele>
        <time>2020-08-08T09:29:46Z</time>
      </trkpt>
      <trkpt lat="47.81913" lon="-2.97029">
        <ele>98.19</ele>
        <time>2020-08-08T09:29:51Z</time>
      </trkpt>
      <trkpt lat="47.81915" lon="-2.97033">
        <ele>98.67</ele>
        <time>2020-08-08T09:29:53Z</time>
      </trkpt>
      <trkpt lat="47.81919" lon="-2.97054">
        <ele>98.19</ele>
        <time>2020-08-08T09:30:08Z</time>
      </trkpt>
      <trkpt lat="47.81926" lon="-2.97076">
        <ele>99.15</ele>
        <time>2020-08-08T09:30:21Z</time>
      </trkpt>
      <trkpt lat="47.81933" lon="-2.97096">
        <ele>99.15</ele>
        <time>2020-08-08T09:30:33Z</time>
      </trkpt>
      <trkpt lat="47.81942" lon="-2.97123">
        <ele>100.6</ele>
        <time>2020-08-08T09:30:52Z</time>
      </trkpt>
      <trkpt lat="47.81948" lon="-2.9715">
        <ele>101.56</ele>
        <time>2020-08-08T09:31:09Z</time>
      </trkpt>
      <trkpt lat="47.81964" lon="-2.9717">
        <ele>103</ele>
        <time>2020-08-08T09:31:29Z</time>
      </trkpt>
      <trkpt lat="47.81966" lon="-2.97176">
        <ele>103.48</ele>
        <time>2020-08-08T09:31:32Z</time>
      </trkpt>
      <trkpt lat="47.81978" lon="-2.97196">
        <ele>104.44</ele>
        <time>2020-08-08T09:31:49Z</time>
      </trkpt>
      <trkpt lat="47.81992" lon="-2.97213">
        <ele>105.4</ele>
        <time>2020-08-08T09:32:04Z</time>
      </trkpt>
      <trkpt lat="47.82005" lon="-2.9723">
        <ele>105.4</ele>
        <time>2020-08-08T09:32:21Z</time>
      </trkpt>
      <trkpt lat="47.82018" lon="-2.97246">
        <ele>107.81</ele>
        <time>2020-08-08T09:32:39Z</time>
      </trkpt>
      <trkpt lat="47.8202" lon="-2.97248">
        <ele>107.81</ele>
        <time>2020-08-08T09:32:42Z</time>
      </trkpt>
      <trkpt lat="47.82028" lon="-2.97256">
        <ele>108.29</ele>
        <time>2020-08-08T09:32:55Z</time>
      </trkpt>
      <trkpt lat="47.82036" lon="-2.97265">
        <ele>109.73</ele>
        <time>2020-08-08T09:33:08Z</time>
      </trkpt>
      <trkpt lat="47.82043" lon="-2.97276">
        <ele>110.69</ele>
        <time>2020-08-08T09:33:22Z</time>
      </trkpt>
      <trkpt lat="47.82054" lon="-2.97297">
        <ele>112.13</ele>
        <time>2020-08-08T09:33:40Z</time>
      </trkpt>
      <trkpt lat="47.82055" lon="-2.97304">
        <ele>112.61</ele>
        <time>2020-08-08T09:33:45Z</time>
      </trkpt>
      <trkpt lat="47.82058" lon="-2.97322">
        <ele>113.09</ele>
        <time>2020-08-08T09:33:58Z</time>
      </trkpt>
      <trkpt lat="47.8206" lon="-2.97337">
        <ele>114.53</ele>
        <time>2020-08-08T09:34:09Z</time>
      </trkpt>
      <trkpt lat="47.82058" lon="-2.97347">
        <ele>115.01</ele>
        <time>2020-08-08T09:34:16Z</time>
      </trkpt>
      <trkpt lat="47.82057" lon="-2.97349">
        <ele>115.5</ele>
        <time>2020-08-08T09:34:18Z</time>
      </trkpt>
      <trkpt lat="47.82053" lon="-2.97373">
        <ele>116.94</ele>
        <time>2020-08-08T09:34:34Z</time>
      </trkpt>
      <trkpt lat="47.82055" lon="-2.97393">
        <ele>117.9</ele>
        <time>2020-08-08T09:34:47Z</time>
      </trkpt>
      <trkpt lat="47.82051" lon="-2.97407">
        <ele>118.38</ele>
        <time>2020-08-08T09:34:58Z</time>
      </trkpt>
      <trkpt lat="47.82051" lon="-2.97421">
        <ele>119.34</ele>
        <time>2020-08-08T09:35:08Z</time>
      </trkpt>
      <trkpt lat="47.8205" lon="-2.97435">
        <ele>120.3</ele>
        <time>2020-08-08T09:35:19Z</time>
      </trkpt>
      <trkpt lat="47.82052" lon="-2.97466">
        <ele>121.74</ele>
        <time>2020-08-08T09:35:39Z</time>
      </trkpt>
      <trkpt lat="47.82055" lon="-2.97483">
        <ele>123.19</ele>
        <time>2020-08-08T09:35:50Z</time>
      </trkpt>
      <trkpt lat="47.82057" lon="-2.9749">
        <ele>123.19</ele>
        <time>2020-08-08T09:35:56Z</time>
      </trkpt>
      <trkpt lat="47.82061" lon="-2.97513">
        <ele>124.15</ele>
        <time>2020-08-08T09:36:11Z</time>
      </trkpt>
      <trkpt lat="47.82062" lon="-2.97521">
        <ele>124.15</ele>
        <time>2020-08-08T09:36:16Z</time>
      </trkpt>
      <trkpt lat="47.82063" lon="-2.97523">
        <ele>124.15</ele>
        <time>2020-08-08T09:36:18Z</time>
      </trkpt>
      <trkpt lat="47.82064" lon="-2.97527">
        <ele>124.63</ele>
        <time>2020-08-08T09:36:20Z</time>
      </trkpt>
      <trkpt lat="47.82071" lon="-2.97558">
        <ele>125.11</ele>
        <time>2020-08-08T09:36:41Z</time>
      </trkpt>
      <trkpt lat="47.82074" lon="-2.97566">
        <ele>125.59</ele>
        <time>2020-08-08T09:36:45Z</time>
      </trkpt>
      <trkpt lat="47.82078" lon="-2.97583">
        <ele>124.63</ele>
        <time>2020-08-08T09:36:58Z</time>
      </trkpt>
      <trkpt lat="47.82082" lon="-2.97597">
        <ele>124.63</ele>
        <time>2020-08-08T09:37:13Z</time>
      </trkpt>
      <trkpt lat="47.82087" lon="-2.97615">
        <ele>123.67</ele>
        <time>2020-08-08T09:37:26Z</time>
      </trkpt>
      <trkpt lat="47.82096" lon="-2.97622">
        <ele>123.19</ele>
        <time>2020-08-08T09:37:42Z</time>
      </trkpt>
      <trkpt lat="47.82099" lon="-2.9763">
        <ele>122.71</ele>
        <time>2020-08-08T09:37:55Z</time>
      </trkpt>
      <trkpt lat="47.82101" lon="-2.97632">
        <ele>122.22</ele>
        <time>2020-08-08T09:37:57Z</time>
      </trkpt>
      <trkpt lat="47.82108" lon="-2.97652">
        <ele>122.71</ele>
        <time>2020-08-08T09:38:12Z</time>
      </trkpt>
      <trkpt lat="47.82117" lon="-2.97662">
        <ele>123.19</ele>
        <time>2020-08-08T09:38:25Z</time>
      </trkpt>
      <trkpt lat="47.82117" lon="-2.97665">
        <ele>122.71</ele>
        <time>2020-08-08T09:38:37Z</time>
      </trkpt>
      <trkpt lat="47.82123" lon="-2.97665">
        <ele>122.71</ele>
        <time>2020-08-08T09:38:43Z</time>
      </trkpt>
      <trkpt lat="47.82139" lon="-2.97661">
        <ele>124.15</ele>
        <time>2020-08-08T09:39:03Z</time>
      </trkpt>
      <trkpt lat="47.82155" lon="-2.97658">
        <ele>125.59</ele>
        <time>2020-08-08T09:39:15Z</time>
      </trkpt>
      <trkpt lat="47.82167" lon="-2.97655">
        <ele>125.59</ele>
        <time>2020-08-08T09:39:27Z</time>
      </trkpt>
      <trkpt lat="47.8218" lon="-2.9765">
        <ele>125.59</ele>
        <time>2020-08-08T09:39:40Z</time>
      </trkpt>
      <trkpt lat="47.82198" lon="-2.97634">
        <ele>126.07</ele>
        <time>2020-08-08T09:39:59Z</time>
      </trkpt>
      <trkpt lat="47.82215" lon="-2.97627">
        <ele>126.07</ele>
        <time>2020-08-08T09:40:15Z</time>
      </trkpt>
      <trkpt lat="47.82217" lon="-2.97628">
        <ele>126.07</ele>
        <time>2020-08-08T09:40:17Z</time>
      </trkpt>
      <trkpt lat="47.82228" lon="-2.97624">
        <ele>126.07</ele>
        <time>2020-08-08T09:40:31Z</time>
      </trkpt>
      <trkpt lat="47.8224" lon="-2.97618">
        <ele>127.51</ele>
        <time>2020-08-08T09:40:45Z</time>
      </trkpt>
      <trkpt lat="47.82262" lon="-2.97605">
        <ele>128.47</ele>
        <time>2020-08-08T09:41:02Z</time>
      </trkpt>
      <trkpt lat="47.82281" lon="-2.9759">
        <ele>129.43</ele>
        <time>2020-08-08T09:41:25Z</time>
      </trkpt>
      <trkpt lat="47.82288" lon="-2.97586">
        <ele>129.92</ele>
        <time>2020-08-08T09:41:30Z</time>
      </trkpt>
      <trkpt lat="47.82301" lon="-2.97572">
        <ele>130.4</ele>
        <time>2020-08-08T09:41:46Z</time>
      </trkpt>
      <trkpt lat="47.82306" lon="-2.97569">
        <ele>130.4</ele>
        <time>2020-08-08T09:41:49Z</time>
      </trkpt>
      <trkpt lat="47.82324" lon="-2.97564">
        <ele>129.43</ele>
        <time>2020-08-08T09:42:06Z</time>
      </trkpt>
      <trkpt lat="47.82336" lon="-2.97553">
        <ele>128.95</ele>
        <time>2020-08-08T09:42:22Z</time>
      </trkpt>
      <trkpt lat="47.82365" lon="-2.9755">
        <ele>127.51</ele>
        <time>2020-08-08T09:42:41Z</time>
      </trkpt>
      <trkpt lat="47.82381" lon="-2.97537">
        <ele>125.59</ele>
        <time>2020-08-08T09:43:01Z</time>
      </trkpt>
      <trkpt lat="47.82402" lon="-2.97521">
        <ele>124.15</ele>
        <time>2020-08-08T09:43:18Z</time>
      </trkpt>
      <trkpt lat="47.82422" lon="-2.97517">
        <ele>122.71</ele>
        <time>2020-08-08T09:43:35Z</time>
      </trkpt>
      <trkpt lat="47.82435" lon="-2.97521">
        <ele>121.26</ele>
        <time>2020-08-08T09:43:48Z</time>
      </trkpt>
      <trkpt lat="47.82438" lon="-2.97522">
        <ele>121.26</ele>
        <time>2020-08-08T09:43:51Z</time>
      </trkpt>
      <trkpt lat="47.82449" lon="-2.9753">
        <ele>120.3</ele>
        <time>2020-08-08T09:44:05Z</time>
      </trkpt>
      <trkpt lat="47.8246" lon="-2.97536">
        <ele>119.82</ele>
        <time>2020-08-08T09:44:13Z</time>
      </trkpt>
      <trkpt lat="47.82471" lon="-2.97537">
        <ele>118.86</ele>
        <time>2020-08-08T09:44:24Z</time>
      </trkpt>
      <trkpt lat="47.82472" lon="-2.97538">
        <ele>118.86</ele>
        <time>2020-08-08T09:44:25Z</time>
      </trkpt>
      <trkpt lat="47.82483" lon="-2.97541">
        <ele>118.86</ele>
        <time>2020-08-08T09:44:38Z</time>
      </trkpt>
      <trkpt lat="47.82492" lon="-2.97538">
        <ele>118.86</ele>
        <time>2020-08-08T09:44:48Z</time>
      </trkpt>
      <trkpt lat="47.82509" lon="-2.97529">
        <ele>119.34</ele>
        <time>2020-08-08T09:45:04Z</time>
      </trkpt>
      <trkpt lat="47.82525" lon="-2.97512">
        <ele>120.78</ele>
        <time>2020-08-08T09:45:27Z</time>
      </trkpt>
      <trkpt lat="47.82526" lon="-2.9749">
        <ele>122.71</ele>
        <time>2020-08-08T09:45:45Z</time>
      </trkpt>
      <trkpt lat="47.82526" lon="-2.97469">
        <ele>123.67</ele>
        <time>2020-08-08T09:46:03Z</time>
      </trkpt>
      <trkpt lat="47.82531" lon="-2.97446">
        <ele>124.63</ele>
        <time>2020-08-08T09:46:19Z</time>
      </trkpt>
      <trkpt lat="47.82538" lon="-2.97431">
        <ele>126.07</ele>
        <time>2020-08-08T09:46:37Z</time>
      </trkpt>
      <trkpt lat="47.82558" lon="-2.97405">
        <ele>127.99</ele>
        <time>2020-08-08T09:46:56Z</time>
      </trkpt>
      <trkpt lat="47.8257" lon="-2.97386">
        <ele>128.95</ele>
        <time>2020-08-08T09:47:11Z</time>
      </trkpt>
      <trkpt lat="47.82572" lon="-2.97381">
        <ele>129.43</ele>
        <time>2020-08-08T09:47:15Z</time>
      </trkpt>
      <trkpt lat="47.82582" lon="-2.97368">
        <ele>130.88</ele>
        <time>2020-08-08T09:47:30Z</time>
      </trkpt>
      <trkpt lat="47.82591" lon="-2.9736">
        <ele>131.36</ele>
        <time>2020-08-08T09:47:43Z</time>
      </trkpt>
      <trkpt lat="47.82595" lon="-2.97356">
        <ele>132.8</ele>
        <time>2020-08-08T09:47:51Z</time>
      </trkpt>
      <trkpt lat="47.826" lon="-2.9735">
        <ele>133.76</ele>
        <time>2020-08-08T09:48:03Z</time>
      </trkpt>
      <trkpt lat="47.8261" lon="-2.97342">
        <ele>134.24</ele>
        <time>2020-08-08T09:48:14Z</time>
      </trkpt>
      <trkpt lat="47.82624" lon="-2.97323">
        <ele>135.68</ele>
        <time>2020-08-08T09:48:28Z</time>
      </trkpt>
      <trkpt lat="47.82625" lon="-2.97323">
        <ele>135.68</ele>
        <time>2020-08-08T09:48:29Z</time>
      </trkpt>
      <trkpt lat="47.82632" lon="-2.97314">
        <ele>136.64</ele>
        <time>2020-08-08T09:48:42Z</time>
      </trkpt>
      <trkpt lat="47.82637" lon="-2.97311">
        <ele>138.09</ele>
        <time>2020-08-08T09:48:56Z</time>
      </trkpt>
      <trkpt lat="47.82661" lon="-2.97274">
        <ele>139.05</ele>
        <time>2020-08-08T09:49:10Z</time>
      </trkpt>
      <trkpt lat="47.82671" lon="-2.9727">
        <ele>138.57</ele>
        <time>2020-08-08T09:49:16Z</time>
      </trkpt>
      <trkpt lat="47.82676" lon="-2.9728">
        <ele>138.09</ele>
        <time>2020-08-08T09:49:27Z</time>
      </trkpt>
      <trkpt lat="47.82678" lon="-2.97284">
        <ele>138.09</ele>
        <time>2020-08-08T09:49:31Z</time>
      </trkpt>
      <trkpt lat="47.82687" lon="-2.9729">
        <ele>138.57</ele>
        <time>2020-08-08T09:49:41Z</time>
      </trkpt>
      <trkpt lat="47.82698" lon="-2.97301">
        <ele>139.53</ele>
        <time>2020-08-08T09:49:56Z</time>
      </trkpt>
      <trkpt lat="47.82708" lon="-2.97312">
        <ele>140.01</ele>
        <time>2020-08-08T09:50:11Z</time>
      </trkpt>
      <trkpt lat="47.82726" lon="-2.97333">
        <ele>140.01</ele>
        <time>2020-08-08T09:50:28Z</time>
      </trkpt>
      <trkpt lat="47.8274" lon="-2.97351">
        <ele>139.53</ele>
        <time>2020-08-08T09:50:46Z</time>
      </trkpt>
      <trkpt lat="47.82749" lon="-2.97357">
        <ele>139.53</ele>
        <time>2020-08-08T09:50:54Z</time>
      </trkpt>
      <trkpt lat="47.82762" lon="-2.9738">
        <ele>139.05</ele>
        <time>2020-08-08T09:51:11Z</time>
      </trkpt>
      <trkpt lat="47.82778" lon="-2.97398">
        <ele>138.09</ele>
        <time>2020-08-08T09:51:27Z</time>
      </trkpt>
      <trkpt lat="47.8278" lon="-2.97405">
        <ele>138.57</ele>
        <time>2020-08-08T09:51:31Z</time>
      </trkpt>
      <trkpt lat="47.82794" lon="-2.9742">
        <ele>138.57</ele>
        <time>2020-08-08T09:51:46Z</time>
      </trkpt>
      <trkpt lat="47.82805" lon="-2.97422">
        <ele>139.05</ele>
        <time>2020-08-08T09:51:59Z</time>
      </trkpt>
      <trkpt lat="47.82816" lon="-2.97442">
        <ele>139.53</ele>
        <time>2020-08-08T09:52:14Z</time>
      </trkpt>
      <trkpt lat="47.82828" lon="-2.97455">
        <ele>139.53</ele>
        <time>2020-08-08T09:52:27Z</time>
      </trkpt>
      <trkpt lat="47.8284" lon="-2.97472">
        <ele>140.01</ele>
        <time>2020-08-08T09:52:41Z</time>
      </trkpt>
      <trkpt lat="47.8285" lon="-2.97483">
        <ele>140.01</ele>
        <time>2020-08-08T09:52:56Z</time>
      </trkpt>
      <trkpt lat="47.82859" lon="-2.97494">
        <ele>140.01</ele>
        <time>2020-08-08T09:53:08Z</time>
      </trkpt>
      <trkpt lat="47.82865" lon="-2.97504">
        <ele>140.97</ele>
        <time>2020-08-08T09:53:19Z</time>
      </trkpt>
      <trkpt lat="47.82871" lon="-2.9751">
        <ele>140.49</ele>
        <time>2020-08-08T09:53:26Z</time>
      </trkpt>
      <trkpt lat="47.82896" lon="-2.9753">
        <ele>140.49</ele>
        <time>2020-08-08T09:53:43Z</time>
      </trkpt>
      <trkpt lat="47.82908" lon="-2.97539">
        <ele>140.01</ele>
        <time>2020-08-08T09:53:53Z</time>
      </trkpt>
      <trkpt lat="47.82911" lon="-2.97543">
        <ele>140.49</ele>
        <time>2020-08-08T09:53:56Z</time>
      </trkpt>
      <trkpt lat="47.82922" lon="-2.97554">
        <ele>140.49</ele>
        <time>2020-08-08T09:54:09Z</time>
      </trkpt>
      <trkpt lat="47.82925" lon="-2.97557">
        <ele>140.49</ele>
        <time>2020-08-08T09:54:14Z</time>
      </trkpt>
      <trkpt lat="47.82928" lon="-2.97561">
        <ele>140.49</ele>
        <time>2020-08-08T09:54:18Z</time>
      </trkpt>
      <trkpt lat="47.82932" lon="-2.97565">
        <ele>140.01</ele>
        <time>2020-08-08T09:54:22Z</time>
      </trkpt>
      <trkpt lat="47.82939" lon="-2.97575">
        <ele>139.53</ele>
        <time>2020-08-08T09:54:31Z</time>
      </trkpt>
      <trkpt lat="47.82948" lon="-2.97586">
        <ele>138.57</ele>
        <time>2020-08-08T09:54:47Z</time>
      </trkpt>
      <trkpt lat="47.82948" lon="-2.97586">
        <ele>138.09</ele>
        <time>2020-08-08T09:54:48Z</time>
      </trkpt>
      <trkpt lat="47.82953" lon="-2.97593">
        <ele>138.09</ele>
        <time>2020-08-08T09:54:56Z</time>
      </trkpt>
      <trkpt lat="47.82963" lon="-2.97601">
        <ele>137.13</ele>
        <time>2020-08-08T09:55:11Z</time>
      </trkpt>
      <trkpt lat="47.82972" lon="-2.97612">
        <ele>136.16</ele>
        <time>2020-08-08T09:55:22Z</time>
      </trkpt>
      <trkpt lat="47.82975" lon="-2.97615">
        <ele>135.68</ele>
        <time>2020-08-08T09:55:25Z</time>
      </trkpt>
      <trkpt lat="47.82986" lon="-2.97626">
        <ele>135.68</ele>
        <time>2020-08-08T09:55:39Z</time>
      </trkpt>
      <trkpt lat="47.82998" lon="-2.97639">
        <ele>134.24</ele>
        <time>2020-08-08T09:55:53Z</time>
      </trkpt>
      <trkpt lat="47.8301" lon="-2.97651">
        <ele>133.76</ele>
        <time>2020-08-08T09:56:06Z</time>
      </trkpt>
      <trkpt lat="47.83021" lon="-2.97663">
        <ele>132.8</ele>
        <time>2020-08-08T09:56:16Z</time>
      </trkpt>
      <trkpt lat="47.83039" lon="-2.97684">
        <ele>132.8</ele>
        <time>2020-08-08T09:56:32Z</time>
      </trkpt>
      <trkpt lat="47.83047" lon="-2.97692">
        <ele>132.32</ele>
        <time>2020-08-08T09:56:41Z</time>
      </trkpt>
      <trkpt lat="47.8305" lon="-2.97697">
        <ele>132.32</ele>
        <time>2020-08-08T09:56:45Z</time>
      </trkpt>
      <trkpt lat="47.83061" lon="-2.97706">
        <ele>132.32</ele>
        <time>2020-08-08T09:56:57Z</time>
      </trkpt>
      <trkpt lat="47.83067" lon="-2.97713">
        <ele>132.32</ele>
        <time>2020-08-08T09:57:04Z</time>
      </trkpt>
      <trkpt lat="47.83077" lon="-2.97721">
        <ele>131.84</ele>
        <time>2020-08-08T09:57:17Z</time>
      </trkpt>
      <trkpt lat="47.8309" lon="-2.97741">
        <ele>131.84</ele>
        <time>2020-08-08T09:57:29Z</time>
      </trkpt>
      <trkpt lat="47.83097" lon="-2.97756">
        <ele>131.36</ele>
        <time>2020-08-08T09:57:41Z</time>
      </trkpt>
      <trkpt lat="47.83099" lon="-2.97757">
        <ele>131.36</ele>
        <time>2020-08-08T09:57:43Z</time>
      </trkpt>
      <trkpt lat="47.83111" lon="-2.97768">
        <ele>131.36</ele>
        <time>2020-08-08T09:57:55Z</time>
      </trkpt>
      <trkpt lat="47.83112" lon="-2.97769">
        <ele>131.36</ele>
        <time>2020-08-08T09:57:56Z</time>
      </trkpt>
      <trkpt lat="47.83117" lon="-2.97777">
        <ele>131.36</ele>
        <time>2020-08-08T09:58:01Z</time>
      </trkpt>
      <trkpt lat="47.83121" lon="-2.97783">
        <ele>131.36</ele>
        <time>2020-08-08T09:58:06Z</time>
      </trkpt>
      <trkpt lat="47.83138" lon="-2.97795">
        <ele>131.36</ele>
        <time>2020-08-08T09:58:23Z</time>
      </trkpt>
      <trkpt lat="47.83148" lon="-2.97807">
        <ele>131.84</ele>
        <time>2020-08-08T09:58:36Z</time>
      </trkpt>
      <trkpt lat="47.83154" lon="-2.97809">
        <ele>131.84</ele>
        <time>2020-08-08T09:58:40Z</time>
      </trkpt>
      <trkpt lat="47.83157" lon="-2.97811">
        <ele>131.84</ele>
        <time>2020-08-08T09:58:43Z</time>
      </trkpt>
      <trkpt lat="47.83168" lon="-2.97826">
        <ele>132.32</ele>
        <time>2020-08-08T09:58:56Z</time>
      </trkpt>
      <trkpt lat="47.83177" lon="-2.97829">
        <ele>131.84</ele>
        <time>2020-08-08T09:59:10Z</time>
      </trkpt>
      <trkpt lat="47.83177" lon="-2.97829">
        <ele>132.32</ele>
        <time>2020-08-08T09:59:11Z</time>
      </trkpt>
      <trkpt lat="47.8318" lon="-2.97839">
        <ele>132.32</ele>
        <time>2020-08-08T09:59:24Z</time>
      </trkpt>
      <trkpt lat="47.83189" lon="-2.97851">
        <ele>132.8</ele>
        <time>2020-08-08T09:59:36Z</time>
      </trkpt>
      <trkpt lat="47.83193" lon="-2.97855">
        <ele>132.8</ele>
        <time>2020-08-08T09:59:41Z</time>
      </trkpt>
      <trkpt lat="47.83199" lon="-2.97869">
        <ele>132.8</ele>
        <time>2020-08-08T09:59:56Z</time>
      </trkpt>
      <trkpt lat="47.83205" lon="-2.9788">
        <ele>133.28</ele>
        <time>2020-08-08T10:00:08Z</time>
      </trkpt>
      <trkpt lat="47.83215" lon="-2.979">
        <ele>133.76</ele>
        <time>2020-08-08T10:00:31Z</time>
      </trkpt>
      <trkpt lat="47.83215" lon="-2.97898">
        <ele>133.76</ele>
        <time>2020-08-08T10:00:49Z</time>
      </trkpt>
      <trkpt lat="47.83212" lon="-2.979">
        <ele>133.76</ele>
        <time>2020-08-08T10:01:06Z</time>
      </trkpt>
      <trkpt lat="47.83221" lon="-2.97902">
        <ele>134.24</ele>
        <time>2020-08-08T10:01:24Z</time>
      </trkpt>
      <trkpt lat="47.83234" lon="-2.97908">
        <ele>134.24</ele>
        <time>2020-08-08T10:01:38Z</time>
      </trkpt>
      <trkpt lat="47.83234" lon="-2.9791">
        <ele>134.24</ele>
        <time>2020-08-08T10:01:39Z</time>
      </trkpt>
      <trkpt lat="47.83242" lon="-2.97919">
        <ele>135.68</ele>
        <time>2020-08-08T10:01:52Z</time>
      </trkpt>
      <trkpt lat="47.83247" lon="-2.97924">
        <ele>135.68</ele>
        <time>2020-08-08T10:02:04Z</time>
      </trkpt>
      <trkpt lat="47.83258" lon="-2.97935">
        <ele>136.16</ele>
        <time>2020-08-08T10:02:15Z</time>
      </trkpt>
      <trkpt lat="47.83265" lon="-2.97943">
        <ele>136.64</ele>
        <time>2020-08-08T10:02:27Z</time>
      </trkpt>
      <trkpt lat="47.83272" lon="-2.97949">
        <ele>136.64</ele>
        <time>2020-08-08T10:02:39Z</time>
      </trkpt>
      <trkpt lat="47.83282" lon="-2.97955">
        <ele>136.64</ele>
        <time>2020-08-08T10:02:52Z</time>
      </trkpt>
      <trkpt lat="47.83288" lon="-2.9796">
        <ele>136.16</ele>
        <time>2020-08-08T10:03:06Z</time>
      </trkpt>
      <trkpt lat="47.83305" lon="-2.97963">
        <ele>137.13</ele>
        <time>2020-08-08T10:03:23Z</time>
      </trkpt>
      <trkpt lat="47.83312" lon="-2.97963">
        <ele>136.16</ele>
        <time>2020-08-08T10:03:38Z</time>
      </trkpt>
      <trkpt lat="47.83322" lon="-2.97949">
        <ele>137.61</ele>
        <time>2020-08-08T10:03:51Z</time>
      </trkpt>
      <trkpt lat="47.83334" lon="-2.97937">
        <ele>137.61</ele>
        <time>2020-08-08T10:04:06Z</time>
      </trkpt>
      <trkpt lat="47.83335" lon="-2.97936">
        <ele>137.61</ele>
        <time>2020-08-08T10:04:07Z</time>
      </trkpt>
      <trkpt lat="47.83357" lon="-2.97926">
        <ele>137.61</ele>
        <time>2020-08-08T10:04:24Z</time>
      </trkpt>
      <trkpt lat="47.83366" lon="-2.97931">
        <ele>137.61</ele>
        <time>2020-08-08T10:04:37Z</time>
      </trkpt>
      <trkpt lat="47.83375" lon="-2.97935">
        <ele>138.09</ele>
        <time>2020-08-08T10:04:53Z</time>
      </trkpt>
      <trkpt lat="47.83389" lon="-2.97929">
        <ele>137.61</ele>
        <time>2020-08-08T10:05:02Z</time>
      </trkpt>
      <trkpt lat="47.83399" lon="-2.97939">
        <ele>137.61</ele>
        <time>2020-08-08T10:05:15Z</time>
      </trkpt>
      <trkpt lat="47.83408" lon="-2.97959">
        <ele>138.09</ele>
        <time>2020-08-08T10:05:28Z</time>
      </trkpt>
      <trkpt lat="47.83418" lon="-2.97979">
        <ele>137.13</ele>
        <time>2020-08-08T10:05:42Z</time>
      </trkpt>
      <trkpt lat="47.8342" lon="-2.97981">
        <ele>137.61</ele>
        <time>2020-08-08T10:05:44Z</time>
      </trkpt>
      <trkpt lat="47.83423" lon="-2.9799">
        <ele>137.13</ele>
        <time>2020-08-08T10:05:50Z</time>
      </trkpt>
      <trkpt lat="47.83431" lon="-2.98017">
        <ele>136.64</ele>
        <time>2020-08-08T10:06:05Z</time>
      </trkpt>
      <trkpt lat="47.83435" lon="-2.98032">
        <ele>136.64</ele>
        <time>2020-08-08T10:06:15Z</time>
      </trkpt>
      <trkpt lat="47.83439" lon="-2.98051">
        <ele>136.16</ele>
        <time>2020-08-08T10:06:28Z</time>
      </trkpt>
      <trkpt lat="47.83441" lon="-2.98054">
        <ele>136.16</ele>
        <time>2020-08-08T10:06:30Z</time>
      </trkpt>
      <trkpt lat="47.83446" lon="-2.98069">
        <ele>135.68</ele>
        <time>2020-08-08T10:06:40Z</time>
      </trkpt>
      <trkpt lat="47.83447" lon="-2.98073">
        <ele>136.16</ele>
        <time>2020-08-08T10:06:43Z</time>
      </trkpt>
      <trkpt lat="47.83455" lon="-2.98093">
        <ele>135.2</ele>
        <time>2020-08-08T10:06:56Z</time>
      </trkpt>
      <trkpt lat="47.83459" lon="-2.98104">
        <ele>134.72</ele>
        <time>2020-08-08T10:07:04Z</time>
      </trkpt>
      <trkpt lat="47.83462" lon="-2.98113">
        <ele>134.72</ele>
        <time>2020-08-08T10:07:10Z</time>
      </trkpt>
      <trkpt lat="47.83464" lon="-2.98116">
        <ele>134.72</ele>
        <time>2020-08-08T10:07:12Z</time>
      </trkpt>
      <trkpt lat="47.83465" lon="-2.98119">
        <ele>134.72</ele>
        <time>2020-08-08T10:07:14Z</time>
      </trkpt>
      <trkpt lat="47.83471" lon="-2.98129">
        <ele>134.24</ele>
        <time>2020-08-08T10:07:21Z</time>
      </trkpt>
      <trkpt lat="47.83472" lon="-2.98131">
        <ele>134.24</ele>
        <time>2020-08-08T10:07:23Z</time>
      </trkpt>
      <trkpt lat="47.83474" lon="-2.98135">
        <ele>134.24</ele>
        <time>2020-08-08T10:07:26Z</time>
      </trkpt>
      <trkpt lat="47.83481" lon="-2.98149">
        <ele>134.24</ele>
        <time>2020-08-08T10:07:36Z</time>
      </trkpt>
      <trkpt lat="47.83489" lon="-2.9817">
        <ele>134.24</ele>
        <time>2020-08-08T10:07:51Z</time>
      </trkpt>
      <trkpt lat="47.83489" lon="-2.9817">
        <ele>133.76</ele>
        <time>2020-08-08T10:07:52Z</time>
      </trkpt>
      <trkpt lat="47.83491" lon="-2.98177">
        <ele>134.24</ele>
        <time>2020-08-08T10:07:56Z</time>
      </trkpt>
      <trkpt lat="47.835" lon="-2.98194">
        <ele>133.76</ele>
        <time>2020-08-08T10:08:08Z</time>
      </trkpt>
      <trkpt lat="47.83507" lon="-2.9821">
        <ele>133.76</ele>
        <time>2020-08-08T10:08:20Z</time>
      </trkpt>
      <trkpt lat="47.83512" lon="-2.9822">
        <ele>133.76</ele>
        <time>2020-08-08T10:08:29Z</time>
      </trkpt>
      <trkpt lat="47.8352" lon="-2.98235">
        <ele>133.28</ele>
        <time>2020-08-08T10:08:41Z</time>
      </trkpt>
      <trkpt lat="47.83523" lon="-2.9824">
        <ele>133.28</ele>
        <time>2020-08-08T10:08:46Z</time>
      </trkpt>
      <trkpt lat="47.83524" lon="-2.98242">
        <ele>133.28</ele>
        <time>2020-08-08T10:08:48Z</time>
      </trkpt>
      <trkpt lat="47.83531" lon="-2.98257">
        <ele>132.8</ele>
        <time>2020-08-08T10:09:00Z</time>
      </trkpt>
      <trkpt lat="47.83533" lon="-2.98261">
        <ele>132.8</ele>
        <time>2020-08-08T10:09:04Z</time>
      </trkpt>
      <trkpt lat="47.83543" lon="-2.98279">
        <ele>131.84</ele>
        <time>2020-08-08T10:09:18Z</time>
      </trkpt>
      <trkpt lat="47.83546" lon="-2.98283">
        <ele>131.84</ele>
        <time>2020-08-08T10:09:22Z</time>
      </trkpt>
      <trkpt lat="47.83548" lon="-2.98287">
        <ele>131.84</ele>
        <time>2020-08-08T10:09:26Z</time>
      </trkpt>
      <trkpt lat="47.83553" lon="-2.98296">
        <ele>131.36</ele>
        <time>2020-08-08T10:09:34Z</time>
      </trkpt>
      <trkpt lat="47.83556" lon="-2.98304">
        <ele>131.36</ele>
        <time>2020-08-08T10:09:45Z</time>
      </trkpt>
      <trkpt lat="47.83561" lon="-2.98313">
        <ele>131.36</ele>
        <time>2020-08-08T10:09:53Z</time>
      </trkpt>
      <trkpt lat="47.83563" lon="-2.98315">
        <ele>131.36</ele>
        <time>2020-08-08T10:09:55Z</time>
      </trkpt>
      <trkpt lat="47.83572" lon="-2.98333">
        <ele>130.88</ele>
        <time>2020-08-08T10:10:08Z</time>
      </trkpt>
      <trkpt lat="47.83576" lon="-2.98343">
        <ele>130.88</ele>
        <time>2020-08-08T10:10:16Z</time>
      </trkpt>
      <trkpt lat="47.83578" lon="-2.98347">
        <ele>130.88</ele>
        <time>2020-08-08T10:10:21Z</time>
      </trkpt>
      <trkpt lat="47.83581" lon="-2.98355">
        <ele>130.88</ele>
        <time>2020-08-08T10:10:27Z</time>
      </trkpt>
      <trkpt lat="47.83585" lon="-2.98364">
        <ele>130.88</ele>
        <time>2020-08-08T10:10:37Z</time>
      </trkpt>
      <trkpt lat="47.83587" lon="-2.98366">
        <ele>131.36</ele>
        <time>2020-08-08T10:10:39Z</time>
      </trkpt>
      <trkpt lat="47.83589" lon="-2.98368">
        <ele>130.88</ele>
        <time>2020-08-08T10:10:42Z</time>
      </trkpt>
      <trkpt lat="47.83595" lon="-2.98373">
        <ele>130.88</ele>
        <time>2020-08-08T10:10:48Z</time>
      </trkpt>
      <trkpt lat="47.83598" lon="-2.98374">
        <ele>130.4</ele>
        <time>2020-08-08T10:10:51Z</time>
      </trkpt>
      <trkpt lat="47.83608" lon="-2.9838">
        <ele>129.92</ele>
        <time>2020-08-08T10:11:05Z</time>
      </trkpt>
      <trkpt lat="47.8361" lon="-2.98377">
        <ele>129.43</ele>
        <time>2020-08-08T10:11:19Z</time>
      </trkpt>
      <trkpt lat="47.8361" lon="-2.98376">
        <ele>129.43</ele>
        <time>2020-08-08T10:11:20Z</time>
      </trkpt>
      <trkpt lat="47.83609" lon="-2.98369">
        <ele>128.95</ele>
        <time>2020-08-08T10:11:27Z</time>
      </trkpt>
      <trkpt lat="47.83609" lon="-2.98363">
        <ele>128.95</ele>
        <time>2020-08-08T10:11:42Z</time>
      </trkpt>
      <trkpt lat="47.83606" lon="-2.98364">
        <ele>129.43</ele>
        <time>2020-08-08T10:11:55Z</time>
      </trkpt>
      <trkpt lat="47.83606" lon="-2.98364">
        <ele>128.95</ele>
        <time>2020-08-08T10:12:10Z</time>
      </trkpt>
      <trkpt lat="47.83606" lon="-2.98364">
        <ele>128.47</ele>
        <time>2020-08-08T10:12:27Z</time>
      </trkpt>
      <trkpt lat="47.83606" lon="-2.98364">
        <ele>128.47</ele>
        <time>2020-08-08T10:12:28Z</time>
      </trkpt>
    </trkseg>
  </trk>
</gpx>